createdAt,value
2022-12-28T00:00:07.313Z,78.80
2022-12-28T00:02:35.264Z,78.40
2022-12-28T00:05:04.609Z,79.30
2022-12-28T00:07:32.450Z,77.50
2022-12-28T00:10:00.280Z,81.10
2022-12-28T00:12:28.057Z,75.60
2022-12-28T00:14:55.897Z,72.10
2022-12-28T00:17:23.717Z,68.70
2022-12-28T00:19:51.524Z,71.10
2022-12-28T00:22:20.696Z,70.60
2022-12-28T00:24:48.500Z,73.40
2022-12-28T00:27:16.318Z,75.50
2022-12-28T00:29:44.133Z,71.00
2022-12-28T00:32:11.923Z,75.80
2022-12-28T00:34:39.769Z,75.20
2022-12-28T00:37:12.660Z,67.10
2022-12-28T00:39:43.273Z,67.90
2022-12-28T00:42:11.195Z,80.20
2022-12-28T00:44:39.150Z,75.90
2022-12-28T00:47:07.005Z,72.50
2022-12-28T00:49:34.846Z,69.20
2022-12-28T00:52:02.641Z,68.70
2022-12-28T00:54:30.460Z,84.10
2022-12-28T00:56:59.649Z,86.00
2022-12-28T00:59:27.478Z,88.80
2022-12-28T01:01:55.432Z,86.80
2022-12-28T01:04:23.736Z,81.10
2022-12-28T01:06:51.599Z,85.20
2022-12-28T01:09:19.422Z,77.00
2022-12-28T01:11:47.285Z,72.00
2022-12-28T01:14:16.425Z,76.90
2022-12-28T01:16:44.279Z,76.50
2022-12-28T01:19:14.480Z,80.30
2022-12-28T01:21:42.240Z,88.80
2022-12-28T01:24:10.568Z,90.30
2022-12-28T01:26:38.475Z,88.20
2022-12-28T01:29:06.268Z,86.10
2022-12-28T01:31:35.466Z,82.40
2022-12-28T01:34:03.445Z,75.90
2022-12-28T01:36:32.486Z,71.40
2022-12-28T01:39:01.448Z,74.30
2022-12-28T01:41:29.916Z,77.10
2022-12-28T01:44:16.198Z,80.00
2022-12-28T01:46:46.617Z,79.90
2022-12-28T01:49:17.438Z,77.10
2022-12-28T01:51:47.353Z,75.20
2022-12-28T01:54:15.922Z,67.50
2022-12-28T01:56:44.041Z,74.00
2022-12-28T01:59:12.117Z,72.40
2022-12-28T02:01:40.159Z,67.90
2022-12-28T02:04:09.562Z,68.00
2022-12-28T02:06:37.489Z,66.80
2022-12-28T02:09:07.184Z,62.80
2022-12-28T02:11:35.398Z,64.00
2022-12-28T02:14:03.916Z,66.80
2022-12-28T02:16:31.749Z,65.30
2022-12-28T02:18:59.723Z,62.70
2022-12-28T02:21:35.252Z,65.20
2022-12-28T02:24:14.903Z,64.60
2022-12-28T02:26:54.701Z,66.50
2022-12-28T02:29:43.654Z,70.40
2022-12-28T02:32:17.960Z,73.20
2022-12-28T02:34:49.629Z,79.30
2022-12-28T02:37:19.927Z,77.10
2022-12-28T02:39:49.894Z,78.00
2022-12-28T02:42:18.798Z,78.20
2022-12-28T02:45:04.301Z,81.50
2022-12-28T02:47:50.801Z,81.80
2022-12-28T02:50:18.762Z,84.50
2022-12-28T02:52:56.801Z,89.60
2022-12-28T02:55:53.014Z,87.20
2022-12-28T02:58:31.486Z,85.30
2022-12-28T03:01:04.314Z,85.30
2022-12-28T03:03:36.394Z,83.40
2022-12-28T03:06:30.639Z,85.60
2022-12-28T03:09:03.018Z,86.90
2022-12-28T03:11:35.524Z,88.00
2022-12-28T03:14:04.687Z,85.40
2022-12-28T03:16:56.358Z,84.40
2022-12-28T03:19:45.928Z,84.50
2022-12-28T03:22:32.228Z,82.50
2022-12-28T03:25:18.486Z,82.20
2022-12-28T03:28:05.376Z,83.00
2022-12-28T03:30:52.257Z,85.00
2022-12-28T03:33:20.190Z,83.40
2022-12-28T03:35:50.806Z,85.80
2022-12-28T03:38:27.325Z,89.60
2022-12-28T03:40:58.242Z,90.10
2022-12-28T03:43:40.637Z,89.50
2022-12-28T03:46:11.028Z,89.20
2022-12-28T03:48:38.931Z,87.90
2022-12-28T03:51:08.361Z,88.50
2022-12-28T03:53:39.001Z,88.80
2022-12-28T03:56:07.770Z,88.10
2022-12-28T03:58:35.626Z,88.00
2022-12-28T04:01:03.503Z,86.70
2022-12-28T04:03:31.765Z,86.80
2022-12-28T04:05:59.958Z,84.90
2022-12-28T04:08:29.283Z,83.70
2022-12-28T04:10:59.399Z,82.70
2022-12-28T04:13:29.483Z,84.10
2022-12-28T04:15:58.207Z,87.10
2022-12-28T04:18:26.225Z,86.30
2022-12-28T04:20:54.075Z,89.00
2022-12-28T04:23:21.891Z,89.60
2022-12-28T04:26:01.423Z,89.90
2022-12-28T04:28:29.461Z,90.50
2022-12-28T04:30:57.539Z,91.20
2022-12-28T04:33:25.770Z,90.90
2022-12-28T04:35:53.905Z,89.10
2022-12-28T04:38:22.241Z,88.60
2022-12-28T04:40:50.040Z,90.50
2022-12-28T04:43:19.233Z,90.70
2022-12-28T04:45:55.858Z,90.30
2022-12-28T04:48:23.665Z,89.50
2022-12-28T04:50:51.472Z,90.10
2022-12-28T04:53:19.299Z,89.80
2022-12-28T04:55:47.280Z,88.60
2022-12-28T04:58:15.147Z,87.50
2022-12-28T05:00:44.604Z,87.80
2022-12-28T05:03:12.432Z,90.80
2022-12-28T05:05:40.651Z,92.00
2022-12-28T05:08:08.460Z,92.20
2022-12-28T05:10:36.677Z,93.10
2022-12-28T05:13:04.555Z,90.10
2022-12-28T05:15:32.354Z,89.50
2022-12-28T05:18:01.518Z,86.40
2022-12-28T05:20:29.335Z,82.90
2022-12-28T05:22:57.121Z,82.40
2022-12-28T05:25:24.929Z,81.90
2022-12-28T05:27:52.769Z,80.40
2022-12-28T05:30:20.564Z,80.50
2022-12-28T05:32:48.393Z,83.60
2022-12-28T05:35:17.718Z,85.10
2022-12-28T05:37:45.546Z,85.80
2022-12-28T05:40:13.363Z,84.00
2022-12-28T05:42:43.901Z,83.50
2022-12-28T05:45:15.800Z,81.90
2022-12-28T05:47:43.605Z,82.60
2022-12-28T05:50:11.868Z,88.20
2022-12-28T05:52:41.049Z,87.70
2022-12-28T05:55:09.198Z,91.90
2022-12-28T05:57:37.012Z,92.80
2022-12-28T06:00:05.717Z,93.40
2022-12-28T06:02:33.662Z,93.60
2022-12-28T06:05:01.641Z,92.90
2022-12-28T06:07:29.447Z,92.70
2022-12-28T06:09:58.591Z,92.90
2022-12-28T06:12:26.390Z,92.60
2022-12-28T06:14:54.182Z,91.70
2022-12-28T06:17:22.003Z,91.80
2022-12-28T06:19:49.811Z,89.90
2022-12-28T06:22:17.626Z,90.20
2022-12-28T06:24:45.438Z,91.50
2022-12-28T06:27:14.625Z,92.00
2022-12-28T06:29:42.480Z,90.30
2022-12-28T06:32:10.393Z,86.10
2022-12-28T06:34:38.220Z,85.40
2022-12-28T06:37:06.018Z,85.30
2022-12-28T06:39:35.700Z,86.30
2022-12-28T06:42:03.495Z,88.20
2022-12-28T06:44:32.642Z,90.00
2022-12-28T06:47:00.499Z,90.80
2022-12-28T06:49:28.876Z,91.50
2022-12-28T06:51:56.684Z,92.50
2022-12-28T06:54:24.793Z,91.40
2022-12-28T06:56:52.648Z,92.00
2022-12-28T06:59:20.478Z,91.30
2022-12-28T07:01:49.775Z,87.40
2022-12-28T07:04:17.729Z,88.20
2022-12-28T07:06:45.585Z,84.60
2022-12-28T07:09:14.280Z,83.10
2022-12-28T07:11:42.329Z,85.30
2022-12-28T07:14:10.229Z,88.60
2022-12-28T07:19:06.151Z,92.20
2022-12-28T07:21:34.721Z,92.10
2022-12-28T07:24:02.610Z,91.80
2022-12-28T07:26:31.198Z,90.30
2022-12-28T07:28:59.923Z,89.60
2022-12-28T07:31:28.596Z,90.00
2022-12-28T07:33:56.981Z,91.60
2022-12-28T07:36:26.652Z,91.70
2022-12-28T07:38:55.650Z,86.70
2022-12-28T07:41:24.802Z,82.40
2022-12-28T07:43:52.918Z,85.40
2022-12-28T07:46:21.747Z,87.60
2022-12-28T07:48:49.677Z,82.90
2022-12-28T07:51:18.261Z,81.10
2022-12-28T07:53:48.005Z,86.80
2022-12-28T07:56:16.262Z,79.50
2022-12-28T08:01:13.247Z,74.40
2022-12-28T08:03:42.316Z,64.50
2022-12-28T08:06:11.567Z,59.10
2022-12-28T08:08:40.086Z,56.40
2022-12-28T08:11:11.482Z,56.50
2022-12-28T08:13:40.908Z,56.50
2022-12-28T08:16:10.865Z,53.30
2022-12-28T08:18:38.925Z,47.80
2022-12-28T08:21:07.820Z,43.90
2022-12-28T08:23:35.649Z,39.10
2022-12-28T08:26:06.918Z,36.10
2022-12-28T08:28:36.450Z,35.40
2022-12-28T08:31:07.901Z,30.10
2022-12-28T08:33:36.269Z,26.40
2022-12-28T08:36:04.337Z,23.70
2022-12-28T08:38:32.173Z,21.10
2022-12-28T08:41:00.866Z,16.90
2022-12-28T08:43:28.963Z,11.80
2022-12-28T08:46:02.085Z,8.90
2022-12-28T08:48:30.602Z,5.80
2022-12-28T08:51:02.143Z,3.10
2022-12-28T08:53:29.999Z,1.50
2022-12-28T08:56:06.601Z,2.20
2022-12-28T08:58:35.000Z,1.00
2022-12-28T09:01:08.772Z,1.00
2022-12-28T09:03:37.537Z,1.00
2022-12-28T09:06:05.754Z,1.00
2022-12-28T09:08:33.599Z,3.80
2022-12-28T09:11:01.865Z,4.20
2022-12-28T09:13:29.740Z,11.70
2022-12-28T09:15:58.225Z,17.50
2022-12-28T09:18:27.528Z,19.50
2022-12-28T09:20:55.380Z,25.80
2022-12-28T09:23:23.583Z,27.10
2022-12-28T09:25:51.486Z,27.00
2022-12-28T09:28:19.298Z,25.80
2022-12-28T09:30:47.109Z,22.50
2022-12-28T09:33:32.390Z,23.10
2022-12-28T09:36:01.697Z,20.00
2022-12-28T09:38:29.503Z,17.40
2022-12-28T09:40:57.317Z,15.30
2022-12-28T09:43:26.202Z,17.90
2022-12-28T09:45:55.512Z,19.20
2022-12-28T09:48:26.515Z,23.10
2022-12-28T09:50:54.490Z,18.70
2022-12-28T09:53:29.388Z,3.00
2022-12-28T09:56:02.420Z,6.10
2022-12-28T09:58:31.228Z,7.30
2022-12-28T10:00:59.879Z,13.10
2022-12-28T10:03:28.711Z,16.50
2022-12-28T10:05:57.482Z,19.00
2022-12-28T10:08:26.227Z,18.70
2022-12-28T10:10:56.628Z,18.60
2022-12-28T10:16:17.679Z,18.10
2022-12-28T10:18:45.979Z,11.30
2022-12-28T10:21:13.964Z,13.90
2022-12-28T10:24:12.141Z,12.20
2022-12-28T10:26:31.975Z,9.10
2022-12-28T10:29:00.911Z,10.30
2022-12-28T10:31:33.274Z,8.60
2022-12-28T10:34:01.357Z,1.90
2022-12-28T10:36:32.745Z,1.00
2022-12-28T10:39:01.746Z,1.00
2022-12-28T10:41:37.195Z,1.00
2022-12-28T10:44:38.347Z,1.00
2022-12-28T10:47:02.607Z,1.00
2022-12-28T10:49:33.034Z,1.00
2022-12-28T10:52:05.808Z,1.00
2022-12-28T10:54:35.575Z,1.00
2022-12-28T10:57:04.949Z,1.00
2022-12-28T10:59:33.385Z,1.00
2022-12-28T11:02:19.962Z,1.00
2022-12-28T11:04:54.863Z,1.00
2022-12-28T11:07:28.235Z,1.00
2022-12-28T11:10:14.179Z,1.00
2022-12-28T11:12:44.884Z,1.00
2022-12-28T11:15:14.865Z,1.00
2022-12-28T11:17:43.068Z,1.00
2022-12-28T11:20:15.155Z,1.00
2022-12-28T11:22:45.329Z,1.00
2022-12-28T11:25:15.714Z,1.00
2022-12-28T11:27:45.090Z,1.00
2022-12-28T11:30:17.477Z,1.00
2022-12-28T11:32:49.533Z,1.00
2022-12-28T11:35:18.346Z,1.00
2022-12-28T11:37:52.827Z,1.00
2022-12-28T11:40:38.488Z,1.00
2022-12-28T11:43:28.407Z,1.00
2022-12-28T11:45:57.179Z,1.00
2022-12-28T11:48:39.345Z,1.00
2022-12-28T11:51:07.436Z,1.00
2022-12-28T11:53:52.182Z,1.00
2022-12-28T11:56:20.831Z,1.00
2022-12-28T11:59:01.683Z,1.00
2022-12-28T12:01:42.912Z,1.00
2022-12-28T12:04:17.979Z,1.00
2022-12-28T12:07:04.461Z,1.00
2022-12-28T12:09:43.533Z,1.00
2022-12-28T12:12:29.997Z,1.00
2022-12-28T12:15:03.291Z,1.00
2022-12-28T12:17:39.759Z,1.00
2022-12-28T12:20:17.685Z,1.00
2022-12-28T12:22:48.388Z,1.00
2022-12-28T12:25:19.527Z,1.00
2022-12-28T12:27:49.534Z,1.00
2022-12-28T12:30:20.102Z,1.00
2022-12-28T12:32:50.303Z,1.00
2022-12-28T12:35:19.115Z,1.00
2022-12-28T12:37:48.248Z,1.00
2022-12-28T12:40:23.806Z,1.00
2022-12-28T12:43:00.058Z,1.00
2022-12-28T12:45:32.781Z,1.00
2022-12-28T12:48:07.935Z,1.00
2022-12-28T12:50:48.018Z,1.00
2022-12-28T12:53:22.313Z,1.00
2022-12-28T12:55:57.151Z,1.00
2022-12-28T12:58:27.224Z,1.00
2022-12-28T13:01:06.390Z,1.00
2022-12-28T13:03:39.593Z,1.00
2022-12-28T13:06:07.765Z,1.00
2022-12-28T13:08:37.507Z,1.00
2022-12-28T13:11:08.905Z,1.00
2022-12-28T13:13:38.702Z,1.00
2022-12-28T13:16:11.287Z,1.00
2022-12-28T13:18:46.506Z,1.00
2022-12-28T13:21:20.203Z,1.00
2022-12-28T13:23:48.097Z,1.00
2022-12-28T13:26:16.637Z,1.00
2022-12-28T13:28:49.149Z,1.00
2022-12-28T13:31:19.507Z,1.00
2022-12-28T13:33:57.334Z,1.00
2022-12-28T13:36:25.155Z,1.00
2022-12-28T13:39:14.098Z,1.00
2022-12-28T13:41:46.603Z,1.00
2022-12-28T13:44:29.817Z,1.00
2022-12-28T13:47:01.364Z,1.00
2022-12-28T13:49:30.188Z,1.00
2022-12-28T13:51:58.043Z,1.00
2022-12-28T13:54:26.122Z,1.00
2022-12-28T13:57:08.599Z,1.00
2022-12-28T13:59:42.712Z,1.00
2022-12-28T14:02:16.334Z,1.00
2022-12-28T14:04:53.089Z,1.00
2022-12-28T14:07:22.691Z,1.00
2022-12-28T14:09:51.061Z,1.00
2022-12-28T14:12:19.321Z,1.00
2022-12-28T14:14:47.600Z,1.00
2022-12-28T14:17:17.033Z,1.00
2022-12-28T14:19:45.662Z,1.00
2022-12-28T14:22:26.764Z,1.00
2022-12-28T14:25:02.080Z,1.00
2022-12-28T14:27:30.721Z,1.00
2022-12-28T14:29:58.752Z,1.00
2022-12-28T14:32:28.153Z,1.00
2022-12-28T14:35:02.333Z,1.00
2022-12-28T14:37:32.062Z,1.00
2022-12-28T14:40:02.177Z,1.00
2022-12-28T14:42:31.121Z,1.00
2022-12-28T14:44:59.050Z,1.00
2022-12-28T14:47:35.488Z,1.00
2022-12-28T14:50:05.038Z,1.00
2022-12-28T14:52:36.792Z,1.00
2022-12-28T14:55:23.097Z,1.00
2022-12-28T14:57:52.591Z,1.00
2022-12-28T15:00:24.721Z,1.00
2022-12-28T15:02:54.339Z,1.00
2022-12-28T15:05:40.000Z,1.00
2022-12-28T15:08:08.333Z,1.00
2022-12-28T15:10:37.372Z,1.00
2022-12-28T15:13:05.183Z,1.00
2022-12-28T15:15:33.064Z,1.00
2022-12-28T15:18:02.734Z,1.00
2022-12-28T15:20:30.592Z,1.00
2022-12-28T15:22:58.407Z,1.00
2022-12-28T15:25:26.196Z,1.00
2022-12-28T15:27:54.015Z,1.00
2022-12-28T15:30:28.816Z,1.00
2022-12-28T15:32:57.064Z,1.00
2022-12-28T15:35:26.232Z,1.00
2022-12-28T15:37:54.026Z,1.00
2022-12-28T15:40:21.861Z,1.00
2022-12-28T15:42:49.705Z,1.00
2022-12-28T15:45:18.022Z,1.00
2022-12-28T15:47:46.376Z,1.00
2022-12-28T15:50:14.263Z,1.00
2022-12-28T15:52:43.397Z,1.00
2022-12-28T15:55:11.196Z,1.00
2022-12-28T15:57:39.057Z,1.00
2022-12-28T16:00:07.442Z,1.00
2022-12-28T16:02:35.463Z,1.00
2022-12-28T16:05:03.555Z,1.00
2022-12-28T16:07:31.366Z,1.00
2022-12-28T16:10:00.596Z,1.00
2022-12-28T16:12:28.389Z,1.00
2022-12-28T16:14:56.307Z,1.00
2022-12-28T16:17:24.145Z,1.00
2022-12-28T16:19:51.971Z,1.00
2022-12-28T16:22:19.781Z,1.00
2022-12-28T16:24:48.603Z,1.00
2022-12-28T16:27:17.802Z,1.00
2022-12-28T16:29:46.312Z,3.70
2022-12-28T16:32:14.207Z,1.00
2022-12-28T16:34:42.026Z,1.00
2022-12-28T16:37:10.207Z,1.00
2022-12-28T16:39:38.479Z,1.00
2022-12-28T16:42:07.131Z,3.90
2022-12-28T16:44:37.139Z,5.50
2022-12-28T16:47:05.699Z,5.60
2022-12-28T16:49:33.790Z,8.40
2022-12-28T16:52:01.619Z,6.00
2022-12-28T16:54:29.439Z,11.40
2022-12-28T16:56:57.454Z,9.80
2022-12-28T16:59:26.554Z,10.30
2022-12-28T17:01:56.796Z,11.90
2022-12-28T17:04:24.877Z,18.10
2022-12-28T17:06:53.354Z,18.60
2022-12-28T17:09:21.769Z,18.60
2022-12-28T17:11:50.662Z,8.80
2022-12-28T17:14:35.603Z,4.70
2022-12-28T17:17:06.019Z,7.70
2022-12-28T17:19:34.036Z,6.00
2022-12-28T17:22:01.894Z,9.20
2022-12-28T17:24:29.717Z,8.30
2022-12-28T17:27:01.690Z,9.20
2022-12-28T17:29:33.206Z,15.40
2022-12-28T17:32:01.088Z,12.50
2022-12-28T17:34:30.277Z,14.80
2022-12-28T17:36:58.357Z,10.30
2022-12-28T17:39:26.188Z,15.50
2022-12-28T17:41:53.994Z,18.40
2022-12-28T17:44:21.784Z,15.50
2022-12-28T17:46:49.632Z,25.20
2022-12-28T17:49:17.731Z,14.20
2022-12-28T17:51:46.909Z,15.00
2022-12-28T17:54:15.976Z,16.40
2022-12-28T17:56:44.413Z,19.80
2022-12-28T17:59:13.513Z,16.60
2022-12-28T18:01:41.467Z,13.60
2022-12-28T18:04:09.451Z,17.90
2022-12-28T18:06:37.306Z,20.90
2022-12-28T18:09:06.576Z,21.50
2022-12-28T18:11:34.403Z,20.70
2022-12-28T18:14:02.265Z,24.60
2022-12-28T18:16:30.165Z,24.90
2022-12-28T18:18:58.006Z,19.20
2022-12-28T18:21:25.804Z,26.40
2022-12-28T18:23:53.916Z,25.30
2022-12-28T18:26:23.952Z,23.20
2022-12-28T18:28:51.790Z,21.00
2022-12-28T18:31:19.920Z,22.00
2022-12-28T18:33:47.896Z,28.80
2022-12-28T18:36:17.979Z,23.40
2022-12-28T18:38:46.166Z,25.20
2022-12-28T18:41:15.190Z,24.30
2022-12-28T18:43:44.394Z,29.20
2022-12-28T18:46:12.250Z,29.80
2022-12-28T18:48:41.181Z,28.90
2022-12-28T18:51:09.993Z,25.10
2022-12-28T18:53:38.229Z,23.10
2022-12-28T18:56:07.421Z,24.70
2022-12-28T18:58:36.086Z,30.50
2022-12-28T19:01:06.766Z,34.90
2022-12-28T19:03:35.331Z,28.60
2022-12-28T19:06:04.059Z,25.30
2022-12-28T19:08:32.455Z,26.00
2022-12-28T19:11:00.485Z,18.50
2022-12-28T19:13:28.380Z,32.10
2022-12-28T19:15:56.266Z,29.60
2022-12-28T19:18:25.446Z,27.00
2022-12-28T19:20:56.298Z,26.80
2022-12-28T19:23:24.112Z,25.30
2022-12-28T19:25:54.461Z,32.30
2022-12-28T19:28:22.266Z,37.90
2022-12-28T19:30:51.257Z,33.40
2022-12-28T19:33:19.105Z,24.20
2022-12-28T19:35:48.261Z,24.90
2022-12-28T19:38:16.163Z,23.10
2022-12-28T19:40:44.029Z,25.90
2022-12-28T19:43:12.854Z,26.10
2022-12-28T19:45:40.720Z,27.40
2022-12-28T19:48:08.850Z,33.80
2022-12-28T19:50:36.728Z,32.00
2022-12-28T19:53:07.263Z,32.20
2022-12-28T19:55:35.906Z,25.50
2022-12-28T19:58:03.728Z,30.00
2022-12-28T20:00:31.528Z,27.40
2022-12-28T20:02:59.389Z,26.70
2022-12-28T20:05:27.293Z,21.40
2022-12-28T20:07:55.115Z,22.50
2022-12-28T20:10:24.318Z,17.10
2022-12-28T20:12:52.093Z,18.80
2022-12-28T20:15:19.932Z,20.00
2022-12-28T20:17:47.771Z,18.90
2022-12-28T20:20:17.091Z,18.20
2022-12-28T20:22:46.026Z,17.70
2022-12-28T20:25:13.909Z,23.30
2022-12-28T20:27:43.083Z,25.70
2022-12-28T20:30:11.392Z,20.40
2022-12-28T20:32:44.525Z,20.00
2022-12-28T20:35:12.826Z,21.40
2022-12-28T20:37:40.737Z,18.90
2022-12-28T20:40:08.989Z,17.50
2022-12-28T20:42:54.412Z,19.30
2022-12-28T20:45:23.931Z,21.10
2022-12-28T20:47:53.401Z,18.90
2022-12-28T20:50:21.288Z,19.50
2022-12-28T20:52:49.142Z,21.40
2022-12-28T20:55:16.990Z,16.50
2022-12-28T20:57:45.478Z,17.40
2022-12-28T21:00:13.953Z,13.80
2022-12-28T21:02:43.137Z,17.50
2022-12-28T21:05:10.964Z,18.70
2022-12-28T21:07:39.168Z,27.30
2022-12-28T21:10:07.424Z,30.40
2022-12-28T21:12:35.276Z,28.40
2022-12-28T21:15:03.146Z,25.80
2022-12-28T21:17:30.971Z,25.80
2022-12-28T21:20:00.162Z,27.40
2022-12-28T21:22:27.958Z,25.10
2022-12-28T21:24:55.834Z,26.50
2022-12-28T21:27:23.631Z,26.50
2022-12-28T21:29:51.462Z,27.90
2022-12-28T21:32:19.278Z,31.30
2022-12-28T21:34:47.109Z,31.40
2022-12-28T21:37:34.052Z,26.80
2022-12-28T21:40:01.928Z,28.60
2022-12-28T21:42:29.719Z,29.70
2022-12-28T21:44:57.530Z,31.40
2022-12-28T21:47:25.346Z,25.20
2022-12-28T21:49:53.201Z,26.00
2022-12-28T21:52:22.335Z,26.30
2022-12-28T21:54:50.148Z,21.30
2022-12-28T21:57:17.986Z,19.90
2022-12-28T21:59:45.860Z,20.40
2022-12-28T22:02:37.954Z,22.70
2022-12-28T22:05:23.948Z,21.90
2022-12-28T22:08:14.146Z,20.50
2022-12-28T22:10:59.582Z,19.40
2022-12-28T22:13:27.381Z,20.20
2022-12-28T22:15:57.646Z,25.10
2022-12-28T22:21:13.716Z,28.30
2022-12-28T22:23:42.894Z,27.70
2022-12-28T22:26:10.855Z,28.90
2022-12-28T22:28:38.731Z,25.90
2022-12-28T22:31:06.853Z,26.50
2022-12-28T22:33:35.017Z,30.50
2022-12-28T22:36:09.192Z,30.10
2022-12-28T22:38:37.068Z,45.20
2022-12-28T22:41:06.360Z,44.30
2022-12-28T22:43:34.232Z,38.60
2022-12-28T22:46:02.933Z,41.10
2022-12-28T22:48:30.968Z,39.20
2022-12-28T22:51:01.847Z,38.80
2022-12-28T22:53:29.636Z,37.70
2022-12-28T22:55:58.245Z,44.20
2022-12-28T22:58:27.809Z,44.30
2022-12-28T23:01:03.960Z,43.00
2022-12-28T23:03:31.969Z,40.90
2022-12-28T23:05:59.937Z,39.10
2022-12-28T23:08:27.770Z,44.70
2022-12-28T23:10:56.877Z,41.90
2022-12-28T23:13:25.150Z,40.40
2022-12-28T23:15:56.935Z,37.30
2022-12-28T23:18:42.219Z,33.90
2022-12-28T23:21:35.547Z,38.90
2022-12-28T23:24:21.532Z,40.00
2022-12-28T23:27:06.820Z,43.10
2022-12-28T23:29:34.678Z,44.30
2022-12-28T23:32:03.878Z,40.00
2022-12-28T23:34:31.826Z,46.70
2022-12-28T23:36:59.630Z,44.90
2022-12-28T23:39:27.459Z,44.80
2022-12-28T23:41:55.305Z,45.50
2022-12-28T23:44:23.817Z,47.50
2022-12-28T23:46:58.307Z,43.30
2022-12-28T23:49:28.456Z,50.70
2022-12-28T23:51:56.272Z,49.40
2022-12-28T23:54:24.122Z,47.10
2022-12-28T23:56:51.923Z,44.90
2022-12-28T23:59:19.729Z,44.30
